Jump to content

  •  

SOUTHWEST AIRLINES FLIGHT WN2355 FLOWN ON 11-25-2017 BY CAPTAIN TYLER HANUS

Pilot StatsCaptain Tyler Hanus (LDP525) • 262.7 total hours • 63 total flights [View Logbook]
FLIGHT DETAILS
StatusReceived and approved on 2017-11-25 at 10:11:56
Origin AirportNashville Intl (KBNA) • Nashville, Tennessee, United States (599 feet MSL)
Filed Flight PlanFLIGHT PLANNER OFFLINE
Destination AirportDallas Love (KDAL) • Dallas, Texas, United States (487 feet MSL)
Alternate AirportNone Filed
AirlineSouthwest Airlines
AircraftBoeing 737-800 | Winglets (73H / B737-800)
FS Aircraft UsedBoeing 737-7H4NG Southwest Airlines N708SW Goldstar Textures
Cruising AltitudeFL400
Distance Flown540 nautical miles
Passengers Onboard102 passengers (62.96% full)
DEPARTURE DETAILS
Time Out07:44:05
Taxi Data126,858 lbs total with 16,861 lbs of fuel onboard
Takeoff Data07:52:41 (9 minutes after leaving gate/ramp) • 126,457 lbs total • 4° pitch at 140 knots
Departure METARKBNA 251153Z 18005KT 10SM OVC250 09/M01 A2991 RMK AO2 SLP128 T00941011 10117 20089 53001
ARRIVAL DETAILS
Landing Data09:29:40 • 117,703 lbs total • 3° pitch doing 122 knots at a rate of -156.10 feet/minute with 7,480 lbs of fuel onboard
Time In09:34:43 (5 minutes after landing)
Ramp Weight117,477 lbs total
Total Fuel Used9,381 lbs
Total Block Time01:35:36 (1.6 hours) while 14 minutes were spent on the ground
Arrival METARKDAL 251453Z 05004KT 10SM FEW250 14/08 A3001 RMK AO2 SLP158 T01390078 51035 $
MISCELLANEOUS DETAILS
LiveDISPATCH Version4.8.3.1
FS Version
FSUIPC Version4.97
OS VersionWindows 7 32-bit
Screen Resolution1360 x 768
Pilot's CommentsNo Comments Reported
FLIGHT MAP